ASL73B LYTV-LYBE
Flight info
| Callsign | ASL73B |
|---|---|
| Flight time | 0h 37m |
| Altitude | 35000 |
| Route | NIK DCT ELGEB |
| Aircraft | A319/M-SDE3FGHIRWY/LB1 |
Departure
| Time | 2026-05-05 16:32 |
|---|---|
| Airport | Tivat Airport (LYTV) |
Arrival
| Time | 2026-05-05 17:09 |
|---|---|
| Airport | Belgrade Nikola Tesla Airport (LYBE) |
| Time | Latitude | Longitude | Altitude | Speed | Heading |
|---|---|---|---|---|---|
| 2026-05-05 16:01 | 42.41070 | 18.71847 | 5 ft | 0 kts | 167° |
| 2026-05-05 16:22 | 42.41041 | 18.71858 | 5 ft | 0 kts | 165° |
| 2026-05-05 16:25 | 42.40984 | 18.71832 | 6 ft | 1 kts | 232° |
| 2026-05-05 16:29 | 42.40979 | 18.71823 | 6 ft | 4 kts | 232° |
| 2026-05-05 16:29 | 42.40953 | 18.71780 | 7 ft | 8 kts | 227° |
| 2026-05-05 16:29 | 42.40889 | 18.71829 | 5 ft | 18 kts | 135° |
| 2026-05-05 16:29 | 42.40739 | 18.72008 | 4 ft | 40 kts | 139° |
| 2026-05-05 16:30 | 42.40480 | 18.72314 | 4 ft | 56 kts | 139° |
| 2026-05-05 16:30 | 42.40151 | 18.72704 | 5 ft | 69 kts | 139° |
| 2026-05-05 16:30 | 42.39885 | 18.73018 | 3 ft | 42 kts | 139° |
| 2026-05-05 16:30 | 42.39690 | 18.73247 | 4 ft | 15 kts | 147° |
| 2026-05-05 16:31 | 42.39628 | 18.73302 | 4 ft | 13 kts | 49° |
| 2026-05-05 16:31 | 42.39709 | 18.73227 | 4 ft | 25 kts | 319° |
| 2026-05-05 16:31 | 42.40054 | 18.72818 | 3 ft | 108 kts | 319° |
| 2026-05-05 16:31 | 42.40784 | 18.71950 | 255 ft | 156 kts | 318° |
| 2026-05-05 16:32 | 42.41623 | 18.70922 | 1038 ft | 168 kts | 317° |
| 2026-05-05 16:32 | 42.42285 | 18.69598 | 1887 ft | 178 kts | 282° |
| 2026-05-05 16:32 | 42.42005 | 18.67984 | 2684 ft | 190 kts | 234° |
| 2026-05-05 16:32 | 42.40795 | 18.66954 | 3101 ft | 230 kts | 199° |
| 2026-05-05 16:33 | 42.39340 | 18.65950 | 3973 ft | 232 kts | 214° |
| 2026-05-05 16:33 | 42.38049 | 18.64611 | 5212 ft | 233 kts | 220° |
| 2026-05-05 16:33 | 42.36831 | 18.63178 | 6596 ft | 233 kts | 221° |
| 2026-05-05 16:33 | 42.35611 | 18.61718 | 7884 ft | 236 kts | 221° |
| 2026-05-05 16:34 | 42.34355 | 18.60249 | 9155 ft | 241 kts | 220° |
| 2026-05-05 16:34 | 42.32915 | 18.59051 | 10379 ft | 247 kts | 201° |
| 2026-05-05 16:34 | 42.31220 | 18.58602 | 11569 ft | 252 kts | 180° |
| 2026-05-05 16:34 | 42.29463 | 18.58844 | 12741 ft | 256 kts | 172° |
| 2026-05-05 16:35 | 42.27713 | 18.59357 | 13857 ft | 261 kts | 158° |
| 2026-05-05 16:35 | 42.26175 | 18.60676 | 14846 ft | 265 kts | 136° |
| 2026-05-05 16:35 | 42.25105 | 18.62711 | 15570 ft | 270 kts | 113° |
| 2026-05-05 16:35 | 42.24703 | 18.65181 | 16264 ft | 273 kts | 90° |
| 2026-05-05 16:36 | 42.25035 | 18.67709 | 16944 ft | 277 kts | 70° |
| 2026-05-05 16:36 | 42.25676 | 18.70166 | 17647 ft | 279 kts | 70° |
| 2026-05-05 16:36 | 42.26322 | 18.72660 | 18380 ft | 283 kts | 70° |
| 2026-05-05 16:36 | 42.26992 | 18.75169 | 19364 ft | 286 kts | 66° |
| 2026-05-05 16:37 | 42.28017 | 18.77487 | 20298 ft | 291 kts | 51° |
| 2026-05-05 16:37 | 42.29484 | 18.79387 | 21170 ft | 295 kts | 35° |
| 2026-05-05 16:37 | 42.31302 | 18.80692 | 22033 ft | 299 kts | 19° |
| 2026-05-05 16:37 | 42.33313 | 18.81338 | 22816 ft | 304 kts | 9° |
| 2026-05-05 16:38 | 42.35441 | 18.81852 | 23587 ft | 309 kts | 10° |
| 2026-05-05 16:38 | 42.37552 | 18.82367 | 24309 ft | 315 kts | 10° |
| 2026-05-05 16:38 | 42.39718 | 18.82899 | 25038 ft | 319 kts | 10° |
| 2026-05-05 16:38 | 42.41918 | 18.83444 | 25748 ft | 323 kts | 10° |
| 2026-05-05 16:39 | 42.44138 | 18.83999 | 26487 ft | 326 kts | 10° |
| 2026-05-05 16:39 | 42.46380 | 18.84563 | 27182 ft | 329 kts | 10° |
| 2026-05-05 16:39 | 42.48643 | 18.85130 | 27872 ft | 333 kts | 10° |
| 2026-05-05 16:39 | 42.50930 | 18.85704 | 28544 ft | 336 kts | 10° |
| 2026-05-05 16:40 | 42.53284 | 18.86297 | 28796 ft | 354 kts | 10° |
| 2026-05-05 16:40 | 42.55773 | 18.86923 | 28927 ft | 374 kts | 10° |
| 2026-05-05 16:40 | 42.58398 | 18.87581 | 29054 ft | 393 kts | 10° |
| 2026-05-05 16:40 | 42.61144 | 18.88267 | 29181 ft | 409 kts | 10° |
| 2026-05-05 16:41 | 42.63995 | 18.88978 | 29307 ft | 424 kts | 10° |
| 2026-05-05 16:41 | 42.66947 | 18.89719 | 29434 ft | 438 kts | 10° |
| 2026-05-05 16:41 | 42.69972 | 18.90481 | 29677 ft | 446 kts | 10° |
| 2026-05-05 16:41 | 42.73042 | 18.91253 | 30058 ft | 451 kts | 11° |
| 2026-05-05 16:42 | 42.76090 | 18.92300 | 30516 ft | 453 kts | 18° |
| 2026-05-05 16:42 | 42.79006 | 18.93920 | 30996 ft | 453 kts | 27° |
| 2026-05-05 16:42 | 42.81715 | 18.96113 | 31594 ft | 452 kts | 33° |
| 2026-05-05 16:42 | 42.84328 | 18.98473 | 32159 ft | 451 kts | 33° |
| 2026-05-05 16:43 | 42.86937 | 19.00834 | 32698 ft | 450 kts | 33° |
| 2026-05-05 16:43 | 42.89549 | 19.03203 | 33212 ft | 450 kts | 33° |
| 2026-05-05 16:43 | 42.92158 | 19.05571 | 33714 ft | 451 kts | 33° |
| 2026-05-05 16:43 | 42.94763 | 19.07939 | 34266 ft | 450 kts | 33° |
| 2026-05-05 16:44 | 42.97361 | 19.10308 | 34794 ft | 448 kts | 34° |
| 2026-05-05 16:44 | 42.99954 | 19.12674 | 34968 ft | 449 kts | 34° |
| 2026-05-05 16:44 | 43.05125 | 19.17407 | 35009 ft | 446 kts | 34° |
| 2026-05-05 16:45 | 43.10286 | 19.22126 | 35014 ft | 446 kts | 34° |
| 2026-05-05 16:45 | 43.15440 | 19.26846 | 35009 ft | 445 kts | 34° |
| 2026-05-05 16:46 | 43.20565 | 19.31555 | 35012 ft | 444 kts | 34° |
| 2026-05-05 16:46 | 43.25661 | 19.36238 | 35011 ft | 444 kts | 34° |
| 2026-05-05 16:47 | 43.30778 | 19.40962 | 35016 ft | 443 kts | 34° |
| 2026-05-05 16:47 | 43.35885 | 19.45694 | 35014 ft | 442 kts | 34° |
| 2026-05-05 16:48 | 43.40986 | 19.50424 | 35002 ft | 442 kts | 34° |
| 2026-05-05 16:48 | 43.46093 | 19.55156 | 35002 ft | 443 kts | 34° |
| 2026-05-05 16:49 | 43.51193 | 19.59906 | 35004 ft | 442 kts | 34° |
| 2026-05-05 16:49 | 43.56279 | 19.64649 | 35013 ft | 441 kts | 34° |
| 2026-05-05 16:50 | 43.61363 | 19.69389 | 35009 ft | 441 kts | 34° |
| 2026-05-05 16:50 | 43.66435 | 19.74141 | 35004 ft | 441 kts | 34° |
| 2026-05-05 16:51 | 43.71504 | 19.78907 | 34989 ft | 441 kts | 34° |
| 2026-05-05 16:51 | 43.76574 | 19.83669 | 34992 ft | 441 kts | 34° |
| 2026-05-05 16:52 | 43.81647 | 19.88455 | 35002 ft | 440 kts | 34° |
| 2026-05-05 16:52 | 43.86701 | 19.93232 | 35009 ft | 440 kts | 34° |
| 2026-05-05 16:53 | 43.90899 | 19.97207 | 35008 ft | 439 kts | 34° |
| 2026-05-05 16:53 | 43.95952 | 20.01986 | 34998 ft | 440 kts | 34° |
| 2026-05-05 16:54 | 44.01012 | 20.06783 | 34985 ft | 441 kts | 34° |
| 2026-05-05 16:54 | 44.06074 | 20.11600 | 34407 ft | 441 kts | 34° |
| 2026-05-05 16:55 | 44.08608 | 20.14018 | 33750 ft | 441 kts | 34° |
| 2026-05-05 16:55 | 44.11223 | 20.16244 | 33098 ft | 441 kts | 26° |
| 2026-05-05 16:55 | 44.14073 | 20.17844 | 32450 ft | 443 kts | 17° |
| 2026-05-05 16:55 | 44.17080 | 20.18746 | 31800 ft | 443 kts | 7° |
| 2026-05-05 16:56 | 44.20155 | 20.18931 | 31144 ft | 443 kts | 358° |
| 2026-05-05 16:56 | 44.23241 | 20.18768 | 30497 ft | 444 kts | 358° |
| 2026-05-05 16:56 | 44.26335 | 20.18613 | 29847 ft | 445 kts | 358° |
| 2026-05-05 16:56 | 44.29439 | 20.18465 | 29189 ft | 447 kts | 358° |
| 2026-05-05 16:57 | 44.32534 | 20.18321 | 28484 ft | 444 kts | 358° |
| 2026-05-05 16:57 | 44.35571 | 20.18179 | 27645 ft | 440 kts | 358° |
| 2026-05-05 16:57 | 44.38612 | 20.18035 | 26790 ft | 435 kts | 358° |
| 2026-05-05 16:57 | 44.41624 | 20.17890 | 25938 ft | 430 kts | 358° |
| 2026-05-05 16:58 | 44.44600 | 20.17743 | 25086 ft | 426 kts | 358° |
| 2026-05-05 16:58 | 44.47545 | 20.17592 | 24239 ft | 421 kts | 358° |
| 2026-05-05 16:58 | 44.50458 | 20.17442 | 23383 ft | 416 kts | 358° |
| 2026-05-05 16:58 | 44.53335 | 20.17298 | 22526 ft | 412 kts | 358° |
| 2026-05-05 16:59 | 44.56179 | 20.17160 | 21680 ft | 407 kts | 358° |
| 2026-05-05 16:59 | 44.58994 | 20.17026 | 20828 ft | 402 kts | 358° |
| 2026-05-05 16:59 | 44.61776 | 20.16890 | 19976 ft | 398 kts | 358° |
| 2026-05-05 16:59 | 44.64537 | 20.16753 | 19123 ft | 395 kts | 358° |
| 2026-05-05 17:00 | 44.67269 | 20.16616 | 18254 ft | 392 kts | 358° |
| 2026-05-05 17:00 | 44.70000 | 20.16479 | 17251 ft | 393 kts | 358° |
| 2026-05-05 17:00 | 44.72733 | 20.16297 | 16238 ft | 393 kts | 354° |
| 2026-05-05 17:00 | 44.75360 | 20.15283 | 15234 ft | 393 kts | 335° |
| 2026-05-05 17:01 | 44.77611 | 20.13154 | 14229 ft | 391 kts | 316° |
| 2026-05-05 17:01 | 44.79276 | 20.10163 | 13230 ft | 388 kts | 302° |
| 2026-05-05 17:01 | 44.80689 | 20.06958 | 12215 ft | 381 kts | 301° |
| 2026-05-05 17:01 | 44.82046 | 20.03864 | 11198 ft | 361 kts | 301° |
| 2026-05-05 17:02 | 44.83330 | 20.00933 | 10208 ft | 344 kts | 301° |
| 2026-05-05 17:02 | 44.84564 | 19.98117 | 9209 ft | 332 kts | 302° |
| 2026-05-05 17:02 | 44.85961 | 19.95615 | 8269 ft | 320 kts | 321° |
| 2026-05-05 17:02 | 44.87929 | 19.94349 | 7411 ft | 310 kts | 351° |
| 2026-05-05 17:03 | 44.90015 | 19.94659 | 6567 ft | 301 kts | 22° |
| 2026-05-05 17:03 | 44.91839 | 19.96042 | 5715 ft | 295 kts | 31° |
| 2026-05-05 17:03 | 44.93526 | 19.97585 | 4990 ft | 287 kts | 38° |
| 2026-05-05 17:03 | 44.94599 | 19.99752 | 4834 ft | 260 kts | 74° |
| 2026-05-05 17:04 | 44.94559 | 20.02164 | 4626 ft | 241 kts | 112° |
| 2026-05-05 17:04 | 44.93730 | 20.04134 | 4362 ft | 228 kts | 125° |
| 2026-05-05 17:04 | 44.92861 | 20.05972 | 4068 ft | 222 kts | 123° |
| 2026-05-05 17:04 | 44.92047 | 20.07789 | 3785 ft | 216 kts | 122° |
| 2026-05-05 17:05 | 44.91263 | 20.09570 | 3500 ft | 211 kts | 122° |
| 2026-05-05 17:05 | 44.90498 | 20.11312 | 3215 ft | 207 kts | 122° |
| 2026-05-05 17:05 | 44.89752 | 20.13006 | 2972 ft | 198 kts | 122° |
| 2026-05-05 17:05 | 44.89044 | 20.14615 | 2691 ft | 188 kts | 122° |
| 2026-05-05 17:06 | 44.88371 | 20.16143 | 2453 ft | 178 kts | 122° |
| 2026-05-05 17:06 | 44.87744 | 20.17566 | 2218 ft | 164 kts | 122° |
| 2026-05-05 17:06 | 44.87173 | 20.18861 | 2009 ft | 148 kts | 122° |
| 2026-05-05 17:06 | 44.86653 | 20.20040 | 1822 ft | 136 kts | 122° |
| 2026-05-05 17:07 | 44.86172 | 20.21130 | 1648 ft | 127 kts | 122° |
| 2026-05-05 17:07 | 44.85711 | 20.22174 | 1484 ft | 124 kts | 122° |
| 2026-05-05 17:07 | 44.85256 | 20.23196 | 1292 ft | 123 kts | 123° |
| 2026-05-05 17:07 | 44.84821 | 20.24223 | 1104 ft | 122 kts | 121° |
| 2026-05-05 17:08 | 44.84381 | 20.25239 | 941 ft | 121 kts | 123° |
| 2026-05-05 17:08 | 44.83938 | 20.26232 | 805 ft | 122 kts | 124° |
| 2026-05-05 17:08 | 44.83484 | 20.27232 | 630 ft | 121 kts | 122° |
| 2026-05-05 17:08 | 44.83037 | 20.28232 | 477 ft | 121 kts | 122° |
| 2026-05-05 17:09 | 44.82591 | 20.29230 | 332 ft | 120 kts | 122° |
| 2026-05-05 17:09 | 44.82193 | 20.30127 | 305 ft | 90 kts | 122° |
| 2026-05-05 17:09 | 44.81953 | 20.30665 | 307 ft | 40 kts | 122° |
| 2026-05-05 17:09 | 44.81849 | 20.30898 | 308 ft | 23 kts | 122° |
| 2026-05-05 17:10 | 44.81769 | 20.31072 | 308 ft | 24 kts | 123° |
| 2026-05-05 17:10 | 44.81645 | 20.31281 | 305 ft | 32 kts | 146° |
| 2026-05-05 17:10 | 44.81420 | 20.31442 | 306 ft | 40 kts | 155° |
| 2026-05-05 17:10 | 44.81335 | 20.31354 | 306 ft | 20 kts | 299° |
| 2026-05-05 17:11 | 44.81439 | 20.31114 | 306 ft | 34 kts | 301° |
| 2026-05-05 17:11 | 44.81578 | 20.30800 | 308 ft | 42 kts | 302° |
| 2026-05-05 17:11 | 44.81749 | 20.30412 | 308 ft | 52 kts | 302° |
| 2026-05-05 17:11 | 44.81964 | 20.29937 | 307 ft | 64 kts | 302° |
| 2026-05-05 17:12 | 44.82116 | 20.29537 | 308 ft | 20 kts | 244° |
| 2026-05-05 17:12 | 44.82102 | 20.29424 | 307 ft | 17 kts | 306° |
| 2026-05-05 17:12 | 44.82153 | 20.29289 | 307 ft | 13 kts | 260° |
| 2026-05-05 17:12 | 44.82094 | 20.29226 | 307 ft | 3 kts | 211° |
| 2026-05-05 17:13 | 44.82088 | 20.29220 | 307 ft | 0 kts | 211° |